Salem, NY

11:12 PM EST on January 31, 2015 (GMT -0500)
Cossayuna Lake | Change Station
CLOSE
Current Station
Personal Weather Station
Location: Argyle, NY
Elevation: 502 ft
Nearby Weather Stations
Active Advisory: Winter Storm Warning

Elev 502 ft 43.22 °N, 73.42 °W | Updated 11 minutes ago

Partly Cloudy
Partly Cloudy
-6.5 °F
Feels Like -7 °F
N
0.0
Wind Variable Wind from NW
Gusts 0.0 mph

Today
High -- | Low -- °F
--% Chance of Precip.
Yesterday
High -- | Low -- °F
Precip. -- in
7:10 AM 5:03 PM
Waxing Gibbous, 93% visible
Pressure 30.22 in
Visibility 10.0 miles
Clouds Scattered Clouds 7500 ft
Windchill -7 °F
Dew Point -11 °F
Humidity 81%
Rainfall 0.00 in
Snow Depth Not available.
UV 0 out of 12
Pollen .10 out of 12
Air Quality Not available.
Flu Activity Not available.
METAR KGFL 010353Z AUTO 00000KT 10SM SCT075 M23/M26 A3016 RMK AO2 SLP231 T12281256

More Conditions Fewer Conditions

Pressure 30.22 in
Visibility 10.0 miles
Clouds Scattered Clouds 7500 ft
Windchill -7 °F
Dew Point -11 °F
Humidity 81%
Rainfall 0.00 in
Snow Depth Not available.
UV 0 out of 12
Pollen .10 out of 12
Air Quality Not available.
Flu Activity Not available.
METAR KGFL 010353Z AUTO 00000KT 10SM SCT075 M23/M26 A3016 RMK AO2 SLP231 T12281256

More Conditions Fewer Conditions

10-Day Weather Forecast

Almanac

Astronomy

Jan. 31, 2015 Rise Set
Actual Time
Civil Twilight
Nautical Twilight
Astronomical Twilight
Moon
Length of Visible Light
Length of Day
Tomorrow will be .
, % of the Moon is Illuminated

Today's Extremes

State Highs State Lows

Community

WunderPhotos

Upload Photos

1,792,301 photos uploaded!

WunderBlogs® & News

Nearby

Air Quality

  Air Quality AQ Index Pollutant
Not available.

Snow Depth

Station Depth Elevation

Earthquake Activity

City Distance Mag. Time & Date
Minimum magnitude displayed is 2.5.

Coastal Water Temperatures

Place Temperature

Nearby Weather Stations